Time;durP1;ratioP1;P1;durP2;ratioP2;P2;SDS_P1;SDS_P2;PMS_P1;PMS_P2;Temp;Humidity;BMP_temperature;BMP_pressure;BME280_temperature;BME280_humidity;BME280_pressure;Samples;Min_cycle;Max_cycle;Signal;HPM_P1;HPM_P2
2023/04/30 00:00:02;;;;;;;31.60;11.00;;;;;;;13.58;67.91;100300.34;4962263;28;20047;-91
2023/04/30 00:02:36;;;;;;;25.70;11.20;;;;;;;13.58;67.88;100295.00;4962047;28;20130;-91
2023/04/30 00:05:04;;;;;;;20.90;9.73;;;;;;;13.56;68.29;100292.50;4913414;28;20121;-91
2023/04/30 00:07:31;;;;;;;22.60;11.02;;;;;;;13.51;68.15;100302.78;4945689;28;20053;-91
2023/04/30 00:09:58;;;;;;;26.58;10.00;;;;;;;13.44;68.20;100293.66;4947351;28;20469;-91
2023/04/30 00:12:24;;;;;;;21.40;9.00;;;;;;;13.50;68.24;100295.75;4940951;28;20046;-90
2023/04/30 00:14:51;;;;;;;26.30;10.90;;;;;;;13.53;68.18;100306.13;4926892;28;20494;-91
2023/04/30 00:17:18;;;;;;;23.38;10.50;;;;;;;13.56;67.79;100294.31;4945552;28;20073;-90
2023/04/30 00:19:45;;;;;;;24.05;10.77;;;;;;;13.40;68.49;100295.75;4952099;28;20058;-89
2023/04/30 00:22:12;;;;;;;23.27;10.38;;;;;;;13.37;68.20;100303.19;4928425;28;20058;-90
2023/04/30 00:24:38;;;;;;;30.33;11.85;;;;;;;13.37;68.24;100298.69;4942607;28;20062;-90
2023/04/30 00:27:05;;;;;;;22.42;10.93;;;;;;;13.40;68.53;100301.09;4957571;28;20070;-89
2023/04/30 00:29:32;;;;;;;21.08;9.70;;;;;;;13.41;68.73;100302.78;4941766;28;20097;-90
2023/04/30 00:31:59;;;;;;;22.77;10.75;;;;;;;13.36;68.54;100307.69;4947447;28;20101;-90
2023/04/30 00:34:26;;;;;;;22.00;10.52;;;;;;;13.40;68.41;100308.25;4945438;28;20043;-91
2023/04/30 00:36:53;;;;;;;24.88;12.23;;;;;;;13.41;68.27;100313.44;4930686;28;20043;-90
2023/04/30 00:39:20;;;;;;;21.88;11.13;;;;;;;13.43;68.47;100310.63;4935749;28;20039;-90
2023/04/30 00:41:46;;;;;;;22.67;10.15;;;;;;;13.17;68.74;100313.00;4943149;28;20046;-89
2023/04/30 00:44:13;;;;;;;24.50;11.07;;;;;;;13.31;68.44;100311.78;4935204;28;20492;-90
2023/04/30 00:46:40;;;;;;;23.58;11.25;;;;;;;13.24;68.15;100314.97;4929272;28;20070;-90
2023/04/30 00:49:07;;;;;;;25.40;12.27;;;;;;;13.30;68.18;100310.91;4942893;28;20062;-91
2023/04/30 00:51:34;;;;;;;22.73;10.93;;;;;;;13.28;68.18;100312.03;4945189;28;20129;-90
2023/04/30 00:54:02;;;;;;;28.55;10.63;;;;;;;13.27;68.14;100310.38;4942944;28;20067;-91
2023/04/30 00:56:32;;;;;;;22.85;11.13;;;;;;;13.18;68.52;100312.88;4930444;28;20070;-90
2023/04/30 00:58:59;;;;;;;26.17;11.30;;;;;;;13.22;68.44;100310.75;4938860;28;20047;-90
2023/04/30 01:01:30;;;;;;;29.17;11.25;;;;;;;13.20;68.30;100318.91;4945145;28;20472;-90
2023/04/30 01:03:57;;;;;;;26.48;10.90;;;;;;;13.28;68.06;100317.38;4946494;28;20054;-90
2023/04/30 01:06:25;;;;;;;21.85;10.85;;;;;;;13.28;68.24;100320.91;4929857;28;20130;-90
2023/04/30 01:08:52;;;;;;;29.25;11.00;;;;;;;13.30;68.23;100326.09;4943436;28;20050;-90
2023/04/30 01:11:22;;;;;;;25.42;11.35;;;;;;;13.30;68.15;100326.91;4932382;28;20553;-91
2023/04/30 01:13:55;;;;;;;23.65;10.50;;;;;;;13.21;68.36;100317.09;4939590;28;20062;-91
2023/04/30 01:16:25;;;;;;;21.25;10.27;;;;;;;13.35;67.94;100326.50;4945237;28;20451;-90
2023/04/30 01:18:59;;;;;;;24.80;11.63;;;;;;;13.21;68.28;100325.09;4930577;28;20123;-91
2023/04/30 01:21:29;;;;;;;25.95;11.18;;;;;;;13.13;68.63;100320.47;4926973;28;20471;-90
2023/04/30 01:24:38;;;;;;;31.60;12.48;;;;;;;12.97;69.08;100323.66;4913651;28;20109;-91
2023/04/30 01:27:36;;;;;;;22.13;10.65;;;;;;;13.03;68.97;100322.28;4924393;28;20538;-91
2023/04/30 01:30:04;;;;;;;24.30;11.85;;;;;;;13.09;68.92;100324.38;4944927;28;20050;-90
2023/04/30 01:32:30;;;;;;;29.17;12.75;;;;;;;13.08;69.07;100316.50;4928037;28;20050;-91
2023/04/30 01:34:57;;;;;;;25.67;11.45;;;;;;;13.17;68.55;100319.19;4944403;28;20126;-91
2023/04/30 01:37:45;;;;;;;25.25;11.55;;;;;;;13.03;68.60;100317.78;4946148;28;20035;-91
2023/04/30 01:40:19;;;;;;;23.67;11.85;;;;;;;13.07;68.67;100320.16;4941421;28;20046;-91
2023/04/30 01:42:49;;;;;;;24.55;12.57;;;;;;;13.04;68.59;100323.94;4955206;28;20666;-91
2023/04/30 01:45:46;;;;;;;27.05;12.68;;;;;;;13.04;68.65;100318.63;4964758;28;20062;-90
2023/04/30 01:48:21;;;;;;;29.25;11.95;;;;;;;13.02;68.97;100324.06;4939242;28;20121;-91
2023/04/30 01:50:51;;;;;;;24.98;12.73;;;;;;;13.03;69.05;100320.44;4913798;28;20055;-91
2023/04/30 01:53:24;;;;;;;25.88;10.95;;;;;;;13.03;69.20;100320.44;4962507;28;20047;-92
2023/04/30 01:55:56;;;;;;;27.65;12.00;;;;;;;12.99;69.32;100313.69;4935205;28;20043;-93
2023/04/30 01:58:24;;;;;;;21.40;11.63;;;;;;;13.01;69.20;100314.41;4944183;28;20090;-91
2023/04/30 02:00:51;;;;;;;28.80;11.77;;;;;;;12.98;69.44;100319.19;4928989;28;20577;-91
2023/04/30 02:03:19;;;;;;;25.35;11.43;;;;;;;12.99;68.90;100312.88;4944165;28;20715;-92
2023/04/30 02:05:46;;;;;;;27.20;11.90;;;;;;;12.92;69.36;100312.56;4912836;28;20051;-91
2023/04/30 02:08:13;;;;;;;26.08;12.52;;;;;;;12.84;69.70;100309.75;4945053;28;20039;-92
2023/04/30 02:10:40;;;;;;;26.67;11.65;;;;;;;12.86;69.51;100310.47;4940327;28;20439;-93
2023/04/30 02:13:07;;;;;;;22.80;11.43;;;;;;;12.91;69.43;100313.56;4943801;28;20075;-92
2023/04/30 02:15:34;;;;;;;28.98;12.73;;;;;;;12.72;69.77;100316.19;4927705;28;20434;-91
2023/04/30 02:18:00;;;;;;;27.73;11.98;;;;;;;12.75;69.86;100311.44;4923186;28;20039;-90
2023/04/30 02:20:27;;;;;;;23.42;11.68;;;;;;;12.81;69.65;100318.03;4912834;28;20730;-91
2023/04/30 02:22:54;;;;;;;24.02;13.10;;;;;;;12.73;69.83;100318.72;4940510;28;20059;-91
2023/04/30 02:25:21;;;;;;;24.27;11.60;;;;;;;12.82;69.56;100309.91;4942341;28;20035;-91
2023/04/30 02:27:49;;;;;;;27.65;12.52;;;;;;;12.83;69.57;100318.75;4944540;28;20138;-92
2023/04/30 02:30:16;;;;;;;23.40;10.88;;;;;;;12.74;70.01;100320.41;4928527;28;20046;-91
2023/04/30 02:32:43;;;;;;;29.48;12.63;;;;;;;12.78;69.76;100315.66;4938803;28;20414;-91
2023/04/30 02:35:10;;;;;;;27.48;12.68;;;;;;;12.82;69.22;100323.25;4937860;28;20083;-91
2023/04/30 02:37:37;;;;;;;35.97;12.50;;;;;;;12.92;69.20;100317.06;4956904;28;20051;-91
2023/04/30 02:40:12;;;;;;;26.40;12.35;;;;;;;12.96;68.78;100315.81;5033170;27;20759;-84
2023/04/30 02:42:39;;;;;;;29.02;12.65;;;;;;;12.91;68.98;100310.91;4989812;28;20173;-85
2023/04/30 02:45:06;;;;;;;23.63;12.85;;;;;;;12.88;69.08;100310.34;4952063;28;20066;-85
2023/04/30 02:47:33;;;;;;;26.33;12.75;;;;;;;12.84;69.23;100314.25;4957445;28;20057;-85
2023/04/30 02:50:00;;;;;;;30.23;13.00;;;;;;;12.85;69.13;100314.13;4977245;28;20057;-87
2023/04/30 02:52:27;;;;;;;29.60;13.20;;;;;;;12.86;69.13;100312.31;4970200;28;20056;-87
2023/04/30 02:54:54;;;;;;;23.50;12.40;;;;;;;12.79;69.57;100310.16;4978140;28;20383;-87
2023/04/30 02:57:21;;;;;;;30.65;12.65;;;;;;;12.79;69.52;100312.84;4976642;28;20050;-87
2023/04/30 02:59:48;;;;;;;23.08;12.18;;;;;;;12.78;69.49;100305.00;4980703;28;20046;-87
2023/04/30 03:02:15;;;;;;;29.45;13.77;;;;;;;12.75;69.58;100315.94;4985323;28;20131;-87
2023/04/30 03:04:42;;;;;;;29.65;14.25;;;;;;;12.79;69.60;100307.50;4977552;28;20045;-87
2023/04/30 03:07:10;;;;;;;23.08;11.98;;;;;;;12.80;69.63;100306.53;4993281;28;20049;-87
2023/04/30 03:09:37;;;;;;;30.35;14.38;;;;;;;12.77;69.47;100300.63;4994161;28;20050;-87
2023/04/30 03:12:04;;;;;;;28.63;13.20;;;;;;;12.76;69.34;100313.13;5010343;28;20113;-87
2023/04/30 03:14:31;;;;;;;36.53;13.68;;;;;;;12.67;69.64;100305.97;4981298;28;20050;-87
2023/04/30 03:16:58;;;;;;;28.80;13.10;;;;;;;12.71;69.68;100303.84;5009044;28;20507;-88
2023/04/30 03:19:27;;;;;;;28.88;13.25;;;;;;;12.62;69.79;100302.00;4976482;28;20518;-88
2023/04/30 03:21:54;;;;;;;31.52;12.85;;;;;;;12.71;69.75;100310.03;4941610;28;20059;-87
2023/04/30 03:24:21;;;;;;;31.52;13.23;;;;;;;12.66;69.80;100303.44;5006391;28;20073;-87
2023/04/30 03:26:48;;;;;;;26.08;13.05;;;;;;;12.67;69.42;100299.78;4988633;28;20108;-87
2023/04/30 03:29:14;;;;;;;29.00;14.35;;;;;;;12.68;69.50;100304.16;4995003;28;20112;-88
2023/04/30 03:31:41;;;;;;;29.58;14.07;;;;;;;12.64;69.77;100308.06;4984870;28;20411;-88
2023/04/30 03:34:08;;;;;;;28.60;14.02;;;;;;;12.71;69.46;100314.53;4977243;28;20046;-87
2023/04/30 03:36:36;;;;;;;31.25;13.52;;;;;;;12.73;69.71;100324.06;4982357;28;20324;-88
2023/04/30 03:39:03;;;;;;;34.53;15.20;;;;;;;12.64;69.55;100318.72;4993517;28;20049;-87
2023/04/30 03:41:30;;;;;;;35.50;14.25;;;;;;;12.66;69.68;100314.94;4977744;28;20049;-87
2023/04/30 03:43:57;;;;;;;34.20;13.98;;;;;;;12.68;69.67;100320.13;5009222;28;20055;-87
2023/04/30 03:46:24;;;;;;;30.52;14.18;;;;;;;12.66;69.62;100322.09;5010215;28;20517;-88
2023/04/30 03:48:51;;;;;;;27.90;12.65;;;;;;;12.73;70.00;100323.22;4977939;28;20053;-87
2023/04/30 03:51:19;;;;;;;30.23;14.02;;;;;;;12.63;69.94;100312.53;4988723;28;20097;-88
2023/04/30 03:53:46;;;;;;;29.60;14.82;;;;;;;12.59;69.84;100322.66;4944344;28;20069;-87
2023/04/30 03:56:13;;;;;;;28.88;14.10;;;;;;;12.47;70.38;100312.25;4957436;28;20494;-88
2023/04/30 03:58:42;;;;;;;31.35;14.95;;;;;;;12.55;70.19;100320.38;4958789;28;20042;-88
2023/04/30 04:01:09;;;;;;;30.80;13.90;;;;;;;12.55;69.91;100315.06;4976648;28;20529;-87
2023/04/30 04:03:36;;;;;;;32.67;13.80;;;;;;;12.55;70.20;100305.22;4996912;28;20049;-88
2023/04/30 04:06:04;;;;;;;29.10;14.43;;;;;;;12.56;70.31;100314.91;4962587;28;20148;-88
2023/04/30 04:08:31;;;;;;;30.88;14.68;;;;;;;12.56;70.14;100314.06;4995962;28;20088;-87
2023/04/30 04:10:59;;;;;;;31.00;14.82;;;;;;;12.47;70.58;100314.91;4969223;28;20108;-88
2023/04/30 04:13:25;;;;;;;29.95;13.98;;;;;;;12.51;70.24;100311.81;4997600;28;20116;-87
2023/04/30 04:15:52;;;;;;;29.38;14.15;;;;;;;12.48;70.58;100313.91;4980971;28;20111;-87
2023/04/30 04:18:20;;;;;;;29.13;14.00;;;;;;;12.46;70.79;100316.69;4981763;28;20050;-87
2023/04/30 04:20:47;;;;;;;29.70;14.23;;;;;;;12.55;70.29;100310.56;4968155;28;20053;-87
2023/04/30 04:23:15;;;;;;;40.38;14.75;;;;;;;12.51;70.51;100313.63;4952402;28;20050;-87
2023/04/30 04:25:43;;;;;;;33.50;15.88;;;;;;;12.52;70.53;100316.16;4967400;28;20065;-87
2023/04/30 04:28:10;;;;;;;31.30;14.75;;;;;;;12.51;70.70;100314.47;4996595;28;20049;-87
2023/04/30 04:30:39;;;;;;;34.60;15.13;;;;;;;12.56;70.42;100314.06;4984381;28;20045;-87
2023/04/30 04:33:07;;;;;;;36.08;15.48;;;;;;;12.45;70.89;100320.34;4971370;28;20050;-88
2023/04/30 04:35:34;;;;;;;27.13;13.85;;;;;;;12.51;70.57;100324.28;4952638;28;20120;-87
2023/04/30 04:38:04;;;;;;;34.55;15.27;;;;;;;12.45;71.00;100324.84;4981511;28;20050;-87
2023/04/30 04:40:31;;;;;;;29.63;14.77;;;;;;;12.56;70.35;100335.38;4998750;28;20046;-88
2023/04/30 04:42:58;;;;;;;39.35;15.23;;;;;;;12.43;70.75;100329.47;4982086;28;20049;-87
2023/04/30 04:45:25;;;;;;;31.25;14.45;;;;;;;12.51;70.55;100343.78;4965217;28;20490;-88
2023/04/30 04:47:52;;;;;;;31.52;15.30;;;;;;;12.47;70.46;100337.03;4964620;28;21074;-87
2023/04/30 04:50:20;;;;;;;34.30;16.83;;;;;;;12.47;70.42;100337.03;4977234;28;20576;-87
2023/04/30 04:52:47;;;;;;;32.92;15.05;;;;;;;12.48;70.62;100336.06;4979957;28;20042;-87
2023/04/30 04:55:16;;;;;;;29.98;13.60;;;;;;;12.54;70.35;100340.00;4981897;28;20046;-87
2023/04/30 04:57:44;;;;;;;31.08;14.63;;;;;;;12.51;69.98;100345.59;4965327;28;20046;-87
2023/04/30 05:00:11;;;;;;;46.00;15.35;;;;;;;12.42;70.46;100349.09;4955352;28;20061;-87
2023/04/30 05:02:38;;;;;;;34.38;16.17;;;;;;;12.51;70.32;100349.09;4978131;28;20049;-87
2023/04/30 05:05:06;;;;;;;27.88;15.35;;;;;;;12.57;70.46;100348.56;4992506;28;20141;-87
2023/04/30 05:07:34;;;;;;;38.33;14.85;;;;;;;12.60;70.15;100342.13;4980381;28;20495;-87
2023/04/30 05:10:01;;;;;;;32.05;14.68;;;;;;;12.54;70.33;100348.84;4999345;28;20057;-87
2023/04/30 05:12:30;;;;;;;34.15;15.73;;;;;;;12.51;70.47;100341.09;4967659;28;20124;-88
2023/04/30 05:14:59;;;;;;;37.42;15.55;;;;;;;12.48;70.41;100344.03;4993349;28;20056;-87
2023/04/30 05:17:26;;;;;;;35.70;15.48;;;;;;;12.55;70.52;100345.19;4986290;28;20076;-87
2023/04/30 05:19:53;;;;;;;37.90;17.83;;;;;;;12.51;70.55;100345.59;4978427;28;20520;-87
2023/04/30 05:22:20;;;;;;;34.10;16.00;;;;;;;12.58;70.13;100352.06;4974905;28;20045;-87
2023/04/30 05:24:47;;;;;;;34.10;16.23;;;;;;;12.65;70.38;100355.03;4985769;28;20554;-87
2023/04/30 05:27:15;;;;;;;37.45;17.40;;;;;;;12.59;70.37;100343.09;4955890;28;20050;-88
2023/04/30 05:29:44;;;;;;;37.38;16.65;;;;;;;12.64;69.95;100348.00;4981869;28;20058;-87
2023/04/30 05:32:11;;;;;;;33.30;15.85;;;;;;;12.70;70.08;100352.81;4970053;28;20482;-87
2023/04/30 05:34:38;;;;;;;36.22;16.08;;;;;;;12.69;70.21;100341.28;4965083;28;20446;-87
2023/04/30 05:37:05;;;;;;;38.22;17.45;;;;;;;12.81;69.94;100358.84;4980399;28;20546;-87
2023/04/30 05:39:31;;;;;;;40.10;17.45;;;;;;;12.84;69.02;100360.41;4943514;28;20694;-87
2023/04/30 05:41:58;;;;;;;40.13;18.77;;;;;;;12.80;69.08;100359.84;4981219;28;20077;-87
2023/04/30 05:44:25;;;;;;;37.90;17.05;;;;;;;12.88;69.29;100345.81;4947607;28;20046;-87
2023/04/30 05:46:52;;;;;;;40.25;16.58;;;;;;;12.86;69.12;100342.47;4979649;28;20109;-87
2023/04/30 05:49:19;;;;;;;36.50;17.38;;;;;;;12.87;68.68;100357.44;5014863;28;20116;-87
2023/04/30 05:51:46;;;;;;;41.13;18.00;;;;;;;12.89;68.97;100347.50;4979534;28;20506;-87
2023/04/30 05:54:12;;;;;;;33.58;17.20;;;;;;;12.88;69.14;100345.81;5000144;28;20038;-87
2023/04/30 05:56:39;;;;;;;36.35;16.38;;;;;;;12.83;68.81;100353.41;4983735;28;20057;-87
2023/04/30 05:59:06;;;;;;;37.83;19.10;;;;;;;12.86;68.86;100346.94;4983166;28;20089;-87
2023/04/30 06:01:33;;;;;;;38.55;17.23;;;;;;;12.85;68.73;100338.13;4995619;28;20422;-87
2023/04/30 06:04:03;;;;;;;36.17;17.52;;;;;;;12.93;69.09;100345.41;4982649;28;20046;-87
2023/04/30 06:06:33;;;;;;;35.90;16.77;;;;;;;12.97;68.54;100347.66;4991980;28;20575;-87
2023/04/30 06:09:00;;;;;;;35.67;17.20;;;;;;;12.97;69.17;100346.81;4963978;28;20061;-87
2023/04/30 06:11:27;;;;;;;35.30;15.88;;;;;;;12.98;69.65;100344.03;4991179;28;20352;-87
2023/04/30 06:13:53;;;;;;;40.58;16.98;;;;;;;13.00;69.76;100349.19;4952015;28;20261;-87
2023/04/30 06:16:20;;;;;;;34.80;15.57;;;;;;;13.06;70.03;100346.00;4994767;28;20046;-86
2023/04/30 06:18:47;;;;;;;37.45;16.52;;;;;;;13.13;70.05;100356.94;4969568;28;20043;-87
2023/04/30 06:21:14;;;;;;;37.58;17.33;;;;;;;13.08;69.42;100354.69;4997315;28;20483;-87
2023/04/30 06:23:44;;;;;;;34.55;15.88;;;;;;;13.13;69.63;100355.13;4992663;28;20136;-87
2023/04/30 06:26:13;;;;;;;35.60;16.90;;;;;;;13.09;69.85;100371.53;4982138;28;20045;-88
2023/04/30 06:28:42;;;;;;;35.47;16.50;;;;;;;12.97;68.41;100368.13;4992244;28;20056;-87
2023/04/30 06:31:08;;;;;;;37.42;18.40;;;;;;;12.98;68.73;100367.19;4979755;28;20116;-87
2023/04/30 06:33:36;;;;;;;37.40;17.27;;;;;;;13.01;68.84;100359.72;4996948;28;20057;-87
2023/04/30 06:36:03;;;;;;;40.22;17.38;;;;;;;13.13;69.63;100367.63;4993245;28;20113;-87
2023/04/30 06:38:30;;;;;;;35.60;17.73;;;;;;;13.22;68.53;100364.94;4974767;28;20073;-87
2023/04/30 06:40:56;;;;;;;36.22;18.00;;;;;;;13.13;68.72;100362.28;4994851;28;20053;-87
2023/04/30 06:43:26;;;;;;;40.35;17.48;;;;;;;13.12;68.75;100363.25;4979397;28;20050;-87
2023/04/30 06:45:53;;;;;;;37.10;17.00;;;;;;;13.21;68.91;100360.59;4993094;28;20103;-87
2023/04/30 06:48:20;;;;;;;41.15;17.83;;;;;;;13.08;69.23;100351.16;4961867;28;20053;-87
2023/04/30 06:50:47;;;;;;;40.05;17.52;;;;;;;13.13;69.21;100371.13;4973555;28;20514;-87
2023/04/30 06:53:14;;;;;;;32.88;17.00;;;;;;;13.14;68.53;100369.28;4961939;28;20113;-88
2023/04/30 06:55:47;;;;;;;40.78;16.20;;;;;;;13.12;68.88;100380.09;4956018;28;20495;-88
2023/04/30 06:58:15;;;;;;;41.65;18.45;;;;;;;13.13;68.32;100363.13;4943559;28;20064;-87
2023/04/30 07:00:48;;;;;;;46.13;17.75;;;;;;;13.18;68.98;100363.53;4979498;28;20516;-87
2023/04/30 07:03:15;;;;;;;39.08;17.30;;;;;;;13.24;69.17;100357.63;4936143;28;20087;-87
2023/04/30 07:05:43;;;;;;;38.72;16.83;;;;;;;13.24;69.83;100359.47;4949693;28;20429;-87
2023/04/30 07:08:15;;;;;;;38.45;16.08;;;;;;;13.26;68.24;100376.19;4953839;28;20041;-88
2023/04/30 07:10:50;;;;;;;37.78;16.25;;;;;;;13.34;67.79;100360.34;4992181;28;20057;-87
2023/04/30 07:13:31;;;;;;;34.90;16.05;;;;;;;13.27;70.37;100351.22;4964214;28;20088;-87
2023/04/30 07:16:03;;;;;;;36.45;15.10;;;;;;;13.37;68.17;100348.56;4974688;28;20499;-88
2023/04/30 07:18:33;;;;;;;33.30;15.75;;;;;;;13.45;67.80;100357.50;4972838;28;20119;-88
2023/04/30 07:21:01;;;;;;;33.67;14.80;;;;;;;13.39;68.04;100352.75;4931946;28;20056;-85
2023/04/30 07:23:28;;;;;;;39.47;16.13;;;;;;;13.34;67.71;100352.34;4967931;28;20144;-85
2023/04/30 07:25:56;;;;;;;35.75;15.10;;;;;;;13.46;67.86;100355.72;4915999;28;20076;-86
2023/04/30 07:28:29;;;;;;;;;;;;;;;13.51;67.49;100355.25;4938666;28;20068;-86
2023/04/30 07:31:02;;;;;;;29.70;14.20;;;;;;;13.55;67.60;100352.19;4947119;28;20386;-85
2023/04/30 07:33:32;;;;;;;28.50;13.10;;;;;;;13.63;67.74;100354.13;4975942;28;20600;-86
2023/04/30 07:36:07;;;;;;;30.15;14.90;;;;;;;13.66;67.58;100359.19;4992648;28;20076;-86
2023/04/30 07:38:40;;;;;;;32.10;13.40;;;;;;;13.72;67.22;100352.44;4957149;28;20049;-86
2023/04/30 07:41:10;;;;;;;30.38;14.13;;;;;;;13.84;67.96;100343.28;4981000;28;20100;-86
2023/04/30 07:43:58;;;;;;;30.65;14.60;;;;;;;13.75;65.03;100341.47;4970919;28;20816;-86
2023/04/30 07:46:43;;;;;;;33.40;15.68;;;;;;;13.75;65.86;100339.66;4955050;28;20037;-87
2023/04/30 07:49:10;;;;;;;29.08;13.95;;;;;;;13.78;65.12;100346.53;4960718;28;20557;-86
2023/04/30 07:51:42;;;;;;;33.50;13.90;;;;;;;13.81;65.74;100354.25;4955510;28;20057;-86
2023/04/30 07:54:13;;;;;;;34.75;13.93;;;;;;;13.87;66.41;100345.69;4947713;28;20054;-86
2023/04/30 07:56:41;;;;;;;27.45;11.63;;;;;;;13.94;66.14;100346.75;4963943;28;20056;-86
2023/04/30 07:59:09;;;;;;;25.73;12.35;;;;;;;14.00;66.01;100348.88;4943492;28;20103;-86
2023/04/30 08:01:35;;;;;;;28.23;12.52;;;;;;;14.07;65.45;100351.81;4964432;28;20084;-86
2023/04/30 08:04:09;;;;;;;23.15;12.15;;;;;;;14.11;65.02;100346.00;4982132;28;20408;-86
2023/04/30 08:06:36;;;;;;;25.60;11.20;;;;;;;14.13;65.25;100343.19;4970350;28;20621;-85
2023/04/30 08:09:03;;;;;;;27.02;11.90;;;;;;;14.19;65.29;100347.09;4958720;28;20054;-87
2023/04/30 08:11:30;;;;;;;27.83;11.75;;;;;;;14.18;65.39;100366.81;4965515;28;20046;-87
2023/04/30 08:13:57;;;;;;;27.90;12.88;;;;;;;14.22;63.43;100354.81;4963803;28;20100;-87
2023/04/30 08:16:24;;;;;;;23.60;11.93;;;;;;;14.21;63.91;100355.81;4947771;28;20527;-86
2023/04/30 08:18:54;;;;;;;30.40;12.90;;;;;;;14.22;63.70;100349.47;4926808;28;20512;-86
2023/04/30 08:21:30;;;;;;;28.45;12.90;;;;;;;14.16;62.84;100358.09;4950043;28;20112;-86
2023/04/30 08:24:00;;;;;;;29.92;13.45;;;;;;;14.25;62.86;100358.06;4917788;28;20090;-86
2023/04/30 08:26:30;;;;;;;27.00;12.25;;;;;;;14.28;62.97;100344.41;4965804;28;20121;-86
2023/04/30 08:28:58;;;;;;;25.02;12.25;;;;;;;14.25;62.25;100339.34;4902406;28;20109;-86
2023/04/30 08:31:26;;;;;;;23.73;11.60;;;;;;;14.23;62.75;100335.16;4955080;28;20054;-86
2023/04/30 08:33:57;;;;;;;23.83;11.43;;;;;;;14.32;63.86;100342.25;4969072;28;20138;-86
2023/04/30 08:36:27;;;;;;;17.48;9.75;;;;;;;14.39;62.94;100334.50;4907929;28;20042;-86
2023/04/30 08:38:54;;;;;;;19.67;10.02;;;;;;;14.47;62.95;100331.94;4956673;28;20050;-85
2023/04/30 08:41:25;;;;;;;26.38;10.43;;;;;;;14.57;63.14;100342.59;4968709;28;20050;-86
2023/04/30 08:43:52;;;;;;;21.08;9.73;;;;;;;14.57;63.79;100326.56;4980060;28;20055;-86
2023/04/30 08:46:20;;;;;;;19.70;10.75;;;;;;;14.63;62.87;100328.63;4945844;28;20050;-87
2023/04/30 08:48:47;;;;;;;22.75;9.48;;;;;;;14.62;62.73;100333.13;4979303;28;20411;-86
2023/04/30 08:51:15;;;;;;;21.75;9.60;;;;;;;14.67;62.24;100335.38;4962119;28;21415;-88
2023/04/30 08:53:43;;;;;;;23.48;8.98;;;;;;;14.72;62.28;100341.94;4965368;28;20045;-87
2023/04/30 08:56:10;;;;;;;24.50;11.23;;;;;;;14.75;62.45;100330.09;4963001;28;20046;-87
2023/04/30 08:58:39;;;;;;;20.83;10.05;;;;;;;14.65;62.07;100338.19;4964416;28;20065;-87
2023/04/30 09:01:10;;;;;;;21.60;9.30;;;;;;;14.68;60.91;100345.06;4969859;28;20042;-87
2023/04/30 09:03:39;;;;;;;16.63;8.25;;;;;;;14.75;61.08;100343.47;4957053;28;20831;-87
2023/04/30 09:06:13;;;;;;;18.52;7.97;;;;;;;14.80;60.22;100349.22;4984433;28;20072;-87
2023/04/30 09:09:08;;;;;;;16.02;8.05;;;;;;;14.75;55.08;100346.16;4940537;28;20634;-87
2023/04/30 09:11:41;;;;;;;;;;;;;;;14.69;54.02;100339.56;4962857;28;20053;-88
2023/04/30 09:14:07;;;;;;;17.70;7.57;;;;;;;14.83;57.32;100329.34;4985057;28;20488;-87
2023/04/30 09:16:52;;;;;;;13.00;7.45;;;;;;;14.85;57.37;100336.22;4985902;28;20046;-87
2023/04/30 09:19:32;;;;;;;16.80;8.18;;;;;;;14.85;56.92;100336.22;4953822;28;20137;-87
2023/04/30 09:22:22;;;;;;;18.08;8.48;;;;;;;14.83;56.53;100343.56;4920553;28;20148;-87
2023/04/30 09:24:53;;;;;;;19.00;9.10;;;;;;;14.94;56.30;100339.84;4969629;28;20046;-86
2023/04/30 09:27:31;;;;;;;16.73;6.47;;;;;;;14.82;54.54;100341.06;4976635;28;20148;-87
2023/04/30 09:30:04;;;;;;;15.93;8.75;;;;;;;14.90;54.19;100349.16;4984792;28;20057;-88
2023/04/30 09:32:54;;;;;;;13.55;7.25;;;;;;;14.85;53.54;100333.56;4997885;28;20541;-87
2023/04/30 09:35:28;;;;;;;14.27;7.47;;;;;;;14.85;54.92;100333.56;4992130;28;20049;-87
2023/04/30 09:37:55;;;;;;;14.70;7.57;;;;;;;14.87;56.30;100320.88;4967038;28;20074;-87
2023/04/30 09:40:37;;;;;;;16.35;7.13;;;;;;;14.89;55.81;100326.94;4968473;28;20045;-86
2023/04/30 09:43:04;;;;;;;10.60;5.50;;;;;;;14.96;56.57;100333.34;4986519;28;20116;-87
2023/04/30 09:45:51;;;;;;;11.88;6.38;;;;;;;14.95;53.86;100333.50;4933507;28;20047;-86
2023/04/30 09:48:23;;;;;;;15.48;8.10;;;;;;;14.98;55.43;100323.34;4948862;28;20045;-87
2023/04/30 09:50:55;;;;;;;;;;;;;;;14.90;53.87;100319.75;4964958;28;20048;-87
2023/04/30 09:53:25;;;;;;;15.98;7.70;;;;;;;14.97;54.18;100331.53;5006191;28;19925;-87
2023/04/30 09:55:53;;;;;;;17.50;8.05;;;;;;;14.99;53.47;100337.56;4993621;28;20616;-87
2023/04/30 09:58:23;;;;;;;15.57;7.45;;;;;;;15.04;53.56;100334.44;5004612;28;20061;-87
2023/04/30 10:01:00;;;;;;;12.83;6.70;;;;;;;15.03;54.26;100327.38;4935157;28;20045;-86
2023/04/30 10:03:34;;;;;;;16.42;7.03;;;;;;;15.08;54.93;100325.09;4939474;28;20049;-87
2023/04/30 10:06:02;;;;;;;12.82;5.95;;;;;;;15.11;55.13;100316.75;4950385;28;20133;-87
2023/04/30 10:08:35;;;;;;;11.05;6.32;;;;;;;15.16;55.04;100323.34;4954262;28;20060;-87
2023/04/30 10:11:04;;;;;;;14.40;6.70;;;;;;;15.17;54.97;100321.50;4972704;28;20050;-87
2023/04/30 10:13:44;;;;;;;8.77;5.35;;;;;;;15.16;55.17;100314.47;4960295;28;20446;-87
2023/04/30 10:16:30;;;;;;;17.33;6.25;;;;;;;15.15;53.80;100313.63;4961801;28;20100;-87
2023/04/30 10:19:06;;;;;;;12.75;6.00;;;;;;;15.23;54.52;100323.56;4993682;28;20065;-87
2023/04/30 10:21:33;;;;;;;11.52;6.20;;;;;;;15.24;54.46;100311.03;4997115;28;20068;-87
2023/04/30 10:24:02;;;;;;;11.02;6.25;;;;;;;15.28;54.67;100312.41;4970243;28;20576;-87
2023/04/30 10:26:32;;;;;;;10.55;5.75;;;;;;;15.28;54.09;100317.75;4981267;28;20558;-87
2023/04/30 10:29:00;;;;;;;13.52;5.38;;;;;;;15.31;54.34;100298.72;5001231;28;20049;-86
2023/04/30 10:31:29;;;;;;;13.63;6.20;;;;;;;15.32;53.80;100297.72;4996550;28;20101;-87
2023/04/30 10:34:32;;;;;;;13.38;5.45;;;;;;;15.20;52.32;100297.13;4978330;28;20065;-87
2023/04/30 10:37:04;;;;;;;10.27;5.68;;;;;;;15.30;51.79;100305.91;4970156;28;20045;-87
2023/04/30 10:39:34;;;;;;;10.05;4.88;;;;;;;15.34;53.45;100298.41;4959650;28;20414;-87
2023/04/30 10:42:02;;;;;;;11.93;5.60;;;;;;;15.40;53.03;100295.13;4982513;28;20712;-87
2023/04/30 10:44:34;;;;;;;9.68;4.88;;;;;;;15.50;53.41;100295.84;4960294;28;20495;-88
2023/04/30 10:47:01;;;;;;;14.25;5.72;;;;;;;15.47;52.65;100304.22;4999793;28;20069;-87
2023/04/30 10:49:29;;;;;;;10.40;6.00;;;;;;;15.50;51.39;100295.03;4991394;28;20042;-88
2023/04/30 10:52:03;;;;;;;10.65;5.50;;;;;;;15.44;51.78;100287.59;4994127;28;20042;-87
2023/04/30 10:54:33;;;;;;;8.15;4.60;;;;;;;15.48;53.34;100288.97;4965601;28;20050;-87
2023/04/30 10:57:13;;;;;;;8.88;5.65;;;;;;;15.37;52.15;100277.53;4994028;28;20054;-87
2023/04/30 10:59:50;;;;;;;10.07;5.63;;;;;;;15.44;51.05;100292.97;4994586;28;20048;-87
2023/04/30 11:02:17;;;;;;;10.38;5.72;;;;;;;15.45;50.98;100286.63;4974077;28;20057;-86
2023/04/30 11:05:06;;;;;;;9.45;5.57;;;;;;;15.33;50.60;100280.66;4982264;28;20046;-87
2023/04/30 11:07:33;;;;;;;9.25;5.10;;;;;;;15.33;52.56;100280.66;4983836;28;20108;-87
2023/04/30 11:10:07;;;;;;;10.80;5.05;;;;;;;15.32;52.84;100274.50;4960973;28;20049;-87
2023/04/30 11:12:46;;;;;;;6.82;4.80;;;;;;;15.35;51.76;100276.84;4947648;28;20406;-88
2023/04/30 11:15:37;;;;;;;9.93;5.95;;;;;;;15.37;51.75;100276.69;4946161;28;20057;-88
2023/04/30 11:18:04;;;;;;;9.88;4.95;;;;;;;15.47;53.15;100266.75;4983296;28;20471;-87
2023/04/30 11:20:50;;;;;;;9.18;4.28;;;;;;;15.50;52.83;100277.13;4987490;28;20116;-87
2023/04/30 11:23:27;;;;;;;8.95;4.10;;;;;;;15.58;53.27;100268.31;4928126;28;20050;-88